sensor_id;sensor_type;location;lat;lon;timestamp;P1;durP1;ratioP1;P2;durP2;ratioP2
20986;SDS011;10652;50.306;8.570;2023-10-13T00:01:44;5.43;;;3.80;;
20986;SDS011;10652;50.306;8.570;2023-10-13T00:05:48;6.03;;;3.50;;
20986;SDS011;10652;50.306;8.570;2023-10-13T00:09:54;7.40;;;4.03;;
20986;SDS011;10652;50.306;8.570;2023-10-13T00:13:58;5.30;;;3.47;;
20986;SDS011;10652;50.306;8.570;2023-10-13T00:18:00;5.72;;;3.70;;
20986;SDS011;10652;50.306;8.570;2023-10-13T00:22:04;5.50;;;3.75;;
20986;SDS011;10652;50.306;8.570;2023-10-13T00:26:11;5.00;;;4.10;;
20986;SDS011;10652;50.306;8.570;2023-10-13T00:30:15;5.22;;;3.67;;
20986;SDS011;10652;50.306;8.570;2023-10-13T00:34:32;5.78;;;3.67;;
20986;SDS011;10652;50.306;8.570;2023-10-13T00:38:35;8.48;;;4.25;;
20986;SDS011;10652;50.306;8.570;2023-10-13T00:42:37;5.82;;;3.58;;
20986;SDS011;10652;50.306;8.570;2023-10-13T00:46:52;6.07;;;3.70;;
20986;SDS011;10652;50.306;8.570;2023-10-13T00:51:05;5.80;;;3.60;;
20986;SDS011;10652;50.306;8.570;2023-10-13T00:55:09;5.32;;;3.58;;
20986;SDS011;10652;50.306;8.570;2023-10-13T00:59:15;6.90;;;3.50;;
20986;SDS011;10652;50.306;8.570;2023-10-13T01:03:18;6.05;;;3.47;;
20986;SDS011;10652;50.306;8.570;2023-10-13T01:07:27;5.47;;;3.53;;
20986;SDS011;10652;50.306;8.570;2023-10-13T01:11:30;6.90;;;3.85;;
20986;SDS011;10652;50.306;8.570;2023-10-13T01:15:33;6.22;;;3.80;;
20986;SDS011;10652;50.306;8.570;2023-10-13T01:19:36;7.93;;;3.53;;
20986;SDS011;10652;50.306;8.570;2023-10-13T01:23:44;9.05;;;4.03;;
20986;SDS011;10652;50.306;8.570;2023-10-13T01:27:48;7.28;;;4.20;;
20986;SDS011;10652;50.306;8.570;2023-10-13T01:31:50;5.50;;;3.67;;
20986;SDS011;10652;50.306;8.570;2023-10-13T01:35:57;5.20;;;3.80;;
20986;SDS011;10652;50.306;8.570;2023-10-13T01:40:00;7.18;;;4.10;;
20986;SDS011;10652;50.306;8.570;2023-10-13T01:44:03;7.30;;;3.90;;
20986;SDS011;10652;50.306;8.570;2023-10-13T01:48:06;6.95;;;4.07;;
20986;SDS011;10652;50.306;8.570;2023-10-13T01:52:09;6.38;;;4.38;;
20986;SDS011;10652;50.306;8.570;2023-10-13T01:56:17;9.18;;;4.20;;
20986;SDS011;10652;50.306;8.570;2023-10-13T02:00:20;7.57;;;3.80;;
20986;SDS011;10652;50.306;8.570;2023-10-13T02:04:22;9.85;;;4.07;;
20986;SDS011;10652;50.306;8.570;2023-10-13T02:08:24;7.07;;;3.75;;
20986;SDS011;10652;50.306;8.570;2023-10-13T02:12:26;8.40;;;4.20;;
20986;SDS011;10652;50.306;8.570;2023-10-13T02:16:45;9.30;;;4.20;;
20986;SDS011;10652;50.306;8.570;2023-10-13T02:20:49;6.22;;;4.10;;
20986;SDS011;10652;50.306;8.570;2023-10-13T02:29:04;9.17;;;4.57;;
20986;SDS011;10652;50.306;8.570;2023-10-13T02:33:09;7.30;;;4.82;;
20986;SDS011;10652;50.306;8.570;2023-10-13T02:37:13;8.10;;;4.53;;
20986;SDS011;10652;50.306;8.570;2023-10-13T02:41:16;7.82;;;4.60;;
20986;SDS011;10652;50.306;8.570;2023-10-13T02:45:29;11.23;;;5.35;;
20986;SDS011;10652;50.306;8.570;2023-10-13T02:49:31;10.15;;;4.95;;
20986;SDS011;10652;50.306;8.570;2023-10-13T02:53:38;7.22;;;5.28;;
20986;SDS011;10652;50.306;8.570;2023-10-13T02:57:40;8.85;;;4.97;;
20986;SDS011;10652;50.306;8.570;2023-10-13T03:01:42;9.05;;;4.85;;
20986;SDS011;10652;50.306;8.570;2023-10-13T03:05:45;10.43;;;5.35;;
20986;SDS011;10652;50.306;8.570;2023-10-13T03:09:47;7.88;;;5.65;;
20986;SDS011;10652;50.306;8.570;2023-10-13T03:13:54;7.37;;;5.40;;
20986;SDS011;10652;50.306;8.570;2023-10-13T03:17:56;10.00;;;5.43;;
20986;SDS011;10652;50.306;8.570;2023-10-13T03:22:05;11.43;;;5.65;;
20986;SDS011;10652;50.306;8.570;2023-10-13T03:26:15;7.82;;;5.70;;
20986;SDS011;10652;50.306;8.570;2023-10-13T03:30:19;9.57;;;5.53;;
20986;SDS011;10652;50.306;8.570;2023-10-13T03:34:22;9.60;;;6.25;;
20986;SDS011;10652;50.306;8.570;2023-10-13T03:38:25;11.60;;;5.90;;
20986;SDS011;10652;50.306;8.570;2023-10-13T03:42:29;11.90;;;5.53;;
20986;SDS011;10652;50.306;8.570;2023-10-13T03:46:31;11.70;;;6.07;;
20986;SDS011;10652;50.306;8.570;2023-10-13T03:50:38;11.77;;;6.13;;
20986;SDS011;10652;50.306;8.570;2023-10-13T03:55:04;9.93;;;6.30;;
20986;SDS011;10652;50.306;8.570;2023-10-13T03:59:08;10.27;;;6.85;;
20986;SDS011;10652;50.306;8.570;2023-10-13T04:03:20;13.38;;;7.07;;
20986;SDS011;10652;50.306;8.570;2023-10-13T04:07:35;14.52;;;6.97;;
20986;SDS011;10652;50.306;8.570;2023-10-13T04:12:06;11.98;;;6.40;;
20986;SDS011;10652;50.306;8.570;2023-10-13T04:16:15;12.05;;;6.60;;
20986;SDS011;10652;50.306;8.570;2023-10-13T04:20:17;12.73;;;6.82;;
20986;SDS011;10652;50.306;8.570;2023-10-13T04:24:35;9.05;;;5.75;;
20986;SDS011;10652;50.306;8.570;2023-10-13T04:28:37;11.82;;;6.00;;
20986;SDS011;10652;50.306;8.570;2023-10-13T04:32:41;12.10;;;6.15;;
20986;SDS011;10652;50.306;8.570;2023-10-13T04:36:54;13.05;;;6.05;;
20986;SDS011;10652;50.306;8.570;2023-10-13T04:41:13;10.13;;;5.43;;
20986;SDS011;10652;50.306;8.570;2023-10-13T04:45:24;11.88;;;5.50;;
20986;SDS011;10652;50.306;8.570;2023-10-13T04:49:33;10.52;;;5.18;;
20986;SDS011;10652;50.306;8.570;2023-10-13T04:53:36;10.70;;;4.93;;
20986;SDS011;10652;50.306;8.570;2023-10-13T04:57:58;10.60;;;5.05;;
20986;SDS011;10652;50.306;8.570;2023-10-13T05:02:16;10.85;;;5.20;;
20986;SDS011;10652;50.306;8.570;2023-10-13T05:06:37;9.48;;;5.43;;
20986;SDS011;10652;50.306;8.570;2023-10-13T05:10:48;13.05;;;5.32;;
20986;SDS011;10652;50.306;8.570;2023-10-13T05:15:09;11.00;;;4.90;;
20986;SDS011;10652;50.306;8.570;2023-10-13T05:19:29;10.85;;;4.28;;
20986;SDS011;10652;50.306;8.570;2023-10-13T05:23:50;12.00;;;5.00;;
20986;SDS011;10652;50.306;8.570;2023-10-13T05:28:11;11.60;;;4.97;;
20986;SDS011;10652;50.306;8.570;2023-10-13T05:32:36;12.77;;;5.03;;
20986;SDS011;10652;50.306;8.570;2023-10-13T05:37:13;10.02;;;4.60;;
20986;SDS011;10652;50.306;8.570;2023-10-13T05:41:34;10.15;;;4.85;;
20986;SDS011;10652;50.306;8.570;2023-10-13T05:46:00;11.38;;;5.55;;
20986;SDS011;10652;50.306;8.570;2023-10-13T05:50:22;10.95;;;5.03;;
20986;SDS011;10652;50.306;8.570;2023-10-13T05:54:24;11.60;;;5.07;;
20986;SDS011;10652;50.306;8.570;2023-10-13T05:58:45;12.82;;;5.50;;
20986;SDS011;10652;50.306;8.570;2023-10-13T06:03:05;9.75;;;4.95;;
20986;SDS011;10652;50.306;8.570;2023-10-13T06:07:26;12.38;;;5.72;;
20986;SDS011;10652;50.306;8.570;2023-10-13T06:11:47;13.27;;;6.18;;
20986;SDS011;10652;50.306;8.570;2023-10-13T06:16:08;10.57;;;5.68;;
20986;SDS011;10652;50.306;8.570;2023-10-13T06:20:37;12.63;;;5.25;;
20986;SDS011;10652;50.306;8.570;2023-10-13T06:24:59;15.32;;;5.57;;
20986;SDS011;10652;50.306;8.570;2023-10-13T06:29:20;12.80;;;5.63;;
20986;SDS011;10652;50.306;8.570;2023-10-13T06:33:23;13.13;;;5.30;;
20986;SDS011;10652;50.306;8.570;2023-10-13T06:37:30;13.45;;;5.15;;
20986;SDS011;10652;50.306;8.570;2023-10-13T06:41:34;13.45;;;5.85;;
20986;SDS011;10652;50.306;8.570;2023-10-13T06:45:43;12.02;;;4.63;;
20986;SDS011;10652;50.306;8.570;2023-10-13T06:49:52;10.57;;;4.47;;
20986;SDS011;10652;50.306;8.570;2023-10-13T06:53:56;9.93;;;4.15;;
20986;SDS011;10652;50.306;8.570;2023-10-13T06:57:59;12.35;;;4.50;;
20986;SDS011;10652;50.306;8.570;2023-10-13T07:02:04;10.70;;;4.15;;
20986;SDS011;10652;50.306;8.570;2023-10-13T07:06:26;10.50;;;4.07;;
20986;SDS011;10652;50.306;8.570;2023-10-13T07:10:28;10.65;;;4.32;;
20986;SDS011;10652;50.306;8.570;2023-10-13T07:14:33;10.68;;;4.07;;
20986;SDS011;10652;50.306;8.570;2023-10-13T07:18:35;9.02;;;4.18;;
20986;SDS011;10652;50.306;8.570;2023-10-13T07:22:39;15.25;;;4.72;;
20986;SDS011;10652;50.306;8.570;2023-10-13T07:26:47;12.20;;;4.00;;
20986;SDS011;10652;50.306;8.570;2023-10-13T07:30:59;11.00;;;4.03;;
20986;SDS011;10652;50.306;8.570;2023-10-13T07:35:01;13.18;;;3.78;;
20986;SDS011;10652;50.306;8.570;2023-10-13T07:39:08;14.40;;;4.10;;
20986;SDS011;10652;50.306;8.570;2023-10-13T07:43:34;11.18;;;3.42;;
20986;SDS011;10652;50.306;8.570;2023-10-13T07:47:39;11.05;;;4.00;;
20986;SDS011;10652;50.306;8.570;2023-10-13T07:51:41;10.20;;;3.83;;
20986;SDS011;10652;50.306;8.570;2023-10-13T07:55:46;8.25;;;3.70;;
20986;SDS011;10652;50.306;8.570;2023-10-13T07:59:58;13.82;;;3.88;;
20986;SDS011;10652;50.306;8.570;2023-10-13T08:04:13;11.48;;;4.05;;
20986;SDS011;10652;50.306;8.570;2023-10-13T08:08:24;7.38;;;3.75;;
20986;SDS011;10652;50.306;8.570;2023-10-13T08:12:37;7.97;;;3.88;;
20986;SDS011;10652;50.306;8.570;2023-10-13T08:16:40;8.98;;;3.60;;
20986;SDS011;10652;50.306;8.570;2023-10-13T08:20:48;10.07;;;3.90;;
20986;SDS011;10652;50.306;8.570;2023-10-13T08:24:54;7.40;;;2.95;;
20986;SDS011;10652;50.306;8.570;2023-10-13T08:28:56;6.63;;;3.60;;
20986;SDS011;10652;50.306;8.570;2023-10-13T08:33:07;11.63;;;3.95;;
20986;SDS011;10652;50.306;8.570;2023-10-13T08:37:26;8.57;;;3.78;;
20986;SDS011;10652;50.306;8.570;2023-10-13T08:41:28;9.63;;;3.60;;
20986;SDS011;10652;50.306;8.570;2023-10-13T08:45:31;7.95;;;3.38;;
20986;SDS011;10652;50.306;8.570;2023-10-13T08:49:38;11.60;;;3.63;;
20986;SDS011;10652;50.306;8.570;2023-10-13T08:53:43;9.52;;;3.78;;
20986;SDS011;10652;50.306;8.570;2023-10-13T08:57:53;10.68;;;4.22;;
20986;SDS011;10652;50.306;8.570;2023-10-13T09:02:11;11.70;;;3.75;;
20986;SDS011;10652;50.306;8.570;2023-10-13T09:06:19;8.30;;;3.70;;
20986;SDS011;10652;50.306;8.570;2023-10-13T09:10:24;9.50;;;4.18;;
20986;SDS011;10652;50.306;8.570;2023-10-13T09:14:35;10.90;;;4.63;;
20986;SDS011;10652;50.306;8.570;2023-10-13T09:18:40;7.35;;;3.83;;
20986;SDS011;10652;50.306;8.570;2023-10-13T09:22:50;7.03;;;3.88;;
20986;SDS011;10652;50.306;8.570;2023-10-13T09:27:04;10.10;;;4.47;;
20986;SDS011;10652;50.306;8.570;2023-10-13T09:31:07;11.15;;;4.38;;
20986;SDS011;10652;50.306;8.570;2023-10-13T09:35:20;9.20;;;4.60;;
20986;SDS011;10652;50.306;8.570;2023-10-13T09:39:28;7.25;;;4.43;;
20986;SDS011;10652;50.306;8.570;2023-10-13T09:43:57;7.28;;;4.07;;
20986;SDS011;10652;50.306;8.570;2023-10-13T09:48:01;8.18;;;3.75;;
20986;SDS011;10652;50.306;8.570;2023-10-13T09:52:08;8.63;;;4.40;;
20986;SDS011;10652;50.306;8.570;2023-10-13T09:56:18;6.85;;;4.07;;
20986;SDS011;10652;50.306;8.570;2023-10-13T10:00:29;9.77;;;4.22;;
20986;SDS011;10652;50.306;8.570;2023-10-13T10:04:36;8.20;;;4.25;;
20986;SDS011;10652;50.306;8.570;2023-10-13T10:08:53;6.88;;;4.07;;
20986;SDS011;10652;50.306;8.570;2023-10-13T10:13:26;8.90;;;4.68;;
20986;SDS011;10652;50.306;8.570;2023-10-13T10:17:43;7.80;;;4.30;;
20986;SDS011;10652;50.306;8.570;2023-10-13T10:21:46;9.65;;;4.68;;
20986;SDS011;10652;50.306;8.570;2023-10-13T10:25:50;7.25;;;4.28;;
20986;SDS011;10652;50.306;8.570;2023-10-13T10:29:58;12.07;;;4.70;;
20986;SDS011;10652;50.306;8.570;2023-10-13T10:34:10;10.68;;;4.43;;
20986;SDS011;10652;50.306;8.570;2023-10-13T10:38:24;10.93;;;5.03;;
20986;SDS011;10652;50.306;8.570;2023-10-13T10:42:34;6.72;;;4.40;;
20986;SDS011;10652;50.306;8.570;2023-10-13T10:46:36;8.35;;;4.65;;
20986;SDS011;10652;50.306;8.570;2023-10-13T10:50:45;9.05;;;4.30;;
20986;SDS011;10652;50.306;8.570;2023-10-13T10:55:01;8.55;;;4.70;;
20986;SDS011;10652;50.306;8.570;2023-10-13T10:59:04;11.32;;;5.40;;
20986;SDS011;10652;50.306;8.570;2023-10-13T11:03:07;9.00;;;4.90;;
20986;SDS011;10652;50.306;8.570;2023-10-13T11:07:09;7.85;;;5.10;;
20986;SDS011;10652;50.306;8.570;2023-10-13T11:11:29;9.48;;;5.20;;
20986;SDS011;10652;50.306;8.570;2023-10-13T11:15:41;8.38;;;4.85;;
20986;SDS011;10652;50.306;8.570;2023-10-13T11:19:46;8.90;;;5.03;;
20986;SDS011;10652;50.306;8.570;2023-10-13T11:23:55;7.57;;;4.95;;
20986;SDS011;10652;50.306;8.570;2023-10-13T11:27:58;8.60;;;4.93;;
20986;SDS011;10652;50.306;8.570;2023-10-13T11:32:11;9.70;;;4.90;;
20986;SDS011;10652;50.306;8.570;2023-10-13T11:36:21;7.85;;;4.68;;
20986;SDS011;10652;50.306;8.570;2023-10-13T11:40:34;9.00;;;4.30;;
20986;SDS011;10652;50.306;8.570;2023-10-13T11:44:46;7.60;;;4.30;;
20986;SDS011;10652;50.306;8.570;2023-10-13T11:48:56;8.70;;;4.63;;
20986;SDS011;10652;50.306;8.570;2023-10-13T11:53:06;8.88;;;4.43;;
20986;SDS011;10652;50.306;8.570;2023-10-13T11:57:09;15.07;;;4.88;;
20986;SDS011;10652;50.306;8.570;2023-10-13T12:01:12;11.30;;;4.50;;
20986;SDS011;10652;50.306;8.570;2023-10-13T12:05:14;7.68;;;4.43;;
20986;SDS011;10652;50.306;8.570;2023-10-13T12:09:19;6.85;;;4.28;;
20986;SDS011;10652;50.306;8.570;2023-10-13T12:13:21;8.57;;;4.68;;
20986;SDS011;10652;50.306;8.570;2023-10-13T12:17:32;13.25;;;4.97;;
20986;SDS011;10652;50.306;8.570;2023-10-13T12:21:37;7.32;;;4.25;;
20986;SDS011;10652;50.306;8.570;2023-10-13T12:25:39;7.93;;;4.35;;
20986;SDS011;10652;50.306;8.570;2023-10-13T12:29:59;9.10;;;4.30;;
20986;SDS011;10652;50.306;8.570;2023-10-13T12:34:09;7.43;;;4.13;;
20986;SDS011;10652;50.306;8.570;2023-10-13T12:38:19;10.85;;;4.40;;
20986;SDS011;10652;50.306;8.570;2023-10-13T12:42:40;8.27;;;3.95;;
20986;SDS011;10652;50.306;8.570;2023-10-13T12:47:00;6.95;;;3.90;;
20986;SDS011;10652;50.306;8.570;2023-10-13T12:51:21;8.40;;;3.70;;
20986;SDS011;10652;50.306;8.570;2023-10-13T12:55:32;5.57;;;3.70;;
20986;SDS011;10652;50.306;8.570;2023-10-13T12:59:35;7.95;;;3.80;;
20986;SDS011;10652;50.306;8.570;2023-10-13T13:03:37;10.07;;;4.00;;
20986;SDS011;10652;50.306;8.570;2023-10-13T13:07:43;9.38;;;4.30;;
20986;SDS011;10652;50.306;8.570;2023-10-13T13:11:54;5.10;;;2.72;;
20986;SDS011;10652;50.306;8.570;2023-10-13T13:16:00;6.22;;;4.05;;
20986;SDS011;10652;50.306;8.570;2023-10-13T13:20:02;9.82;;;4.03;;
20986;SDS011;10652;50.306;8.570;2023-10-13T13:24:13;7.88;;;4.10;;
20986;SDS011;10652;50.306;8.570;2023-10-13T13:28:15;9.38;;;4.00;;
20986;SDS011;10652;50.306;8.570;2023-10-13T13:32:18;7.75;;;3.80;;
20986;SDS011;10652;50.306;8.570;2023-10-13T13:36:27;5.25;;;3.28;;
20986;SDS011;10652;50.306;8.570;2023-10-13T13:40:29;9.00;;;3.65;;
20986;SDS011;10652;50.306;8.570;2023-10-13T13:44:37;11.82;;;4.03;;
20986;SDS011;10652;50.306;8.570;2023-10-13T13:48:39;7.82;;;3.92;;
20986;SDS011;10652;50.306;8.570;2023-10-13T13:52:42;8.57;;;3.78;;
20986;SDS011;10652;50.306;8.570;2023-10-13T13:56:48;9.65;;;3.63;;
20986;SDS011;10652;50.306;8.570;2023-10-13T14:00:51;10.25;;;3.80;;
20986;SDS011;10652;50.306;8.570;2023-10-13T14:04:53;6.57;;;3.53;;
20986;SDS011;10652;50.306;8.570;2023-10-13T14:08:56;8.52;;;3.95;;
20986;SDS011;10652;50.306;8.570;2023-10-13T14:13:01;8.82;;;3.80;;
20986;SDS011;10652;50.306;8.570;2023-10-13T14:17:15;8.52;;;3.47;;
20986;SDS011;10652;50.306;8.570;2023-10-13T14:21:17;6.35;;;3.78;;
20986;SDS011;10652;50.306;8.570;2023-10-13T14:25:20;7.35;;;3.72;;
20986;SDS011;10652;50.306;8.570;2023-10-13T14:29:26;10.75;;;4.07;;
20986;SDS011;10652;50.306;8.570;2023-10-13T14:33:29;7.65;;;4.15;;
20986;SDS011;10652;50.306;8.570;2023-10-13T14:37:33;6.95;;;3.75;;
20986;SDS011;10652;50.306;8.570;2023-10-13T14:41:38;7.93;;;3.78;;
20986;SDS011;10652;50.306;8.570;2023-10-13T14:45:40;7.15;;;3.80;;
20986;SDS011;10652;50.306;8.570;2023-10-13T14:49:42;5.55;;;3.72;;
20986;SDS011;10652;50.306;8.570;2023-10-13T14:53:45;6.20;;;3.67;;
20986;SDS011;10652;50.306;8.570;2023-10-13T14:57:48;6.03;;;3.63;;
20986;SDS011;10652;50.306;8.570;2023-10-13T15:01:52;6.45;;;3.45;;
20986;SDS011;10652;50.306;8.570;2023-10-13T15:05:55;6.10;;;3.42;;
20986;SDS011;10652;50.306;8.570;2023-10-13T15:09:57;7.10;;;3.58;;
20986;SDS011;10652;50.306;8.570;2023-10-13T15:13:59;6.57;;;3.40;;
20986;SDS011;10652;50.306;8.570;2023-10-13T15:18:01;6.15;;;3.40;;
20986;SDS011;10652;50.306;8.570;2023-10-13T15:22:03;6.07;;;3.88;;
20986;SDS011;10652;50.306;8.570;2023-10-13T15:26:08;7.07;;;3.53;;
20986;SDS011;10652;50.306;8.570;2023-10-13T15:30:17;6.22;;;3.80;;
20986;SDS011;10652;50.306;8.570;2023-10-13T15:34:23;6.17;;;3.63;;
20986;SDS011;10652;50.306;8.570;2023-10-13T15:38:27;6.47;;;3.90;;
20986;SDS011;10652;50.306;8.570;2023-10-13T15:42:33;6.75;;;3.90;;
20986;SDS011;10652;50.306;8.570;2023-10-13T15:46:35;9.30;;;4.40;;
20986;SDS011;10652;50.306;8.570;2023-10-13T15:50:58;6.90;;;3.78;;
20986;SDS011;10652;50.306;8.570;2023-10-13T15:55:00;10.20;;;4.00;;
20986;SDS011;10652;50.306;8.570;2023-10-13T15:59:03;6.95;;;3.47;;
20986;SDS011;10652;50.306;8.570;2023-10-13T16:03:08;7.25;;;3.75;;
20986;SDS011;10652;50.306;8.570;2023-10-13T16:07:14;7.97;;;3.72;;
20986;SDS011;10652;50.306;8.570;2023-10-13T16:11:16;8.20;;;3.35;;
20986;SDS011;10652;50.306;8.570;2023-10-13T16:15:21;9.63;;;3.55;;
20986;SDS011;10652;50.306;8.570;2023-10-13T16:19:23;6.70;;;3.40;;
20986;SDS011;10652;50.306;8.570;2023-10-13T16:23:25;8.52;;;3.60;;
20986;SDS011;10652;50.306;8.570;2023-10-13T16:27:29;6.97;;;3.42;;
20986;SDS011;10652;50.306;8.570;2023-10-13T16:31:32;5.53;;;3.15;;
20986;SDS011;10652;50.306;8.570;2023-10-13T16:35:35;10.75;;;3.58;;
20986;SDS011;10652;50.306;8.570;2023-10-13T16:39:37;7.38;;;3.30;;
20986;SDS011;10652;50.306;8.570;2023-10-13T16:43:41;7.25;;;2.97;;
20986;SDS011;10652;50.306;8.570;2023-10-13T16:47:44;7.22;;;3.33;;
20986;SDS011;10652;50.306;8.570;2023-10-13T16:51:46;10.52;;;2.97;;
20986;SDS011;10652;50.306;8.570;2023-10-13T16:55:48;7.07;;;3.08;;
20986;SDS011;10652;50.306;8.570;2023-10-13T16:59:50;9.75;;;3.33;;
20986;SDS011;10652;50.306;8.570;2023-10-13T17:03:52;7.30;;;2.92;;
20986;SDS011;10652;50.306;8.570;2023-10-13T17:07:55;8.43;;;3.28;;
20986;SDS011;10652;50.306;8.570;2023-10-13T17:16:11;9.13;;;2.70;;
20986;SDS011;10652;50.306;8.570;2023-10-13T17:20:19;6.50;;;2.67;;
20986;SDS011;10652;50.306;8.570;2023-10-13T17:24:21;7.05;;;2.65;;
20986;SDS011;10652;50.306;8.570;2023-10-13T17:28:23;7.85;;;2.90;;
20986;SDS011;10652;50.306;8.570;2023-10-13T17:32:26;6.72;;;3.00;;
20986;SDS011;10652;50.306;8.570;2023-10-13T17:36:28;7.28;;;2.83;;
20986;SDS011;10652;50.306;8.570;2023-10-13T17:40:33;7.53;;;2.75;;
20986;SDS011;10652;50.306;8.570;2023-10-13T17:44:35;5.53;;;2.97;;
20986;SDS011;10652;50.306;8.570;2023-10-13T17:48:38;7.47;;;3.05;;
20986;SDS011;10652;50.306;8.570;2023-10-13T17:52:40;6.80;;;3.08;;
20986;SDS011;10652;50.306;8.570;2023-10-13T17:56:43;9.25;;;3.25;;
20986;SDS011;10652;50.306;8.570;2023-10-13T18:00:45;7.07;;;3.00;;
20986;SDS011;10652;50.306;8.570;2023-10-13T18:04:47;6.68;;;2.85;;
20986;SDS011;10652;50.306;8.570;2023-10-13T18:08:50;7.43;;;3.05;;
20986;SDS011;10652;50.306;8.570;2023-10-13T18:12:53;11.30;;;3.17;;
20986;SDS011;10652;50.306;8.570;2023-10-13T18:16:55;7.22;;;2.78;;
20986;SDS011;10652;50.306;8.570;2023-10-13T18:21:01;8.18;;;2.70;;
20986;SDS011;10652;50.306;8.570;2023-10-13T18:25:05;8.77;;;3.08;;
20986;SDS011;10652;50.306;8.570;2023-10-13T18:29:13;8.35;;;2.50;;
20986;SDS011;10652;50.306;8.570;2023-10-13T18:33:17;6.55;;;2.47;;
20986;SDS011;10652;50.306;8.570;2023-10-13T18:37:21;7.85;;;2.50;;
20986;SDS011;10652;50.306;8.570;2023-10-13T18:41:23;5.78;;;2.28;;
20986;SDS011;10652;50.306;8.570;2023-10-13T18:45:26;8.35;;;2.67;;
20986;SDS011;10652;50.306;8.570;2023-10-13T18:49:30;7.22;;;2.53;;
20986;SDS011;10652;50.306;8.570;2023-10-13T18:53:33;5.95;;;2.70;;
20986;SDS011;10652;50.306;8.570;2023-10-13T18:57:36;7.38;;;2.60;;
20986;SDS011;10652;50.306;8.570;2023-10-13T19:01:41;6.00;;;2.60;;
20986;SDS011;10652;50.306;8.570;2023-10-13T19:05:44;6.05;;;2.55;;
20986;SDS011;10652;50.306;8.570;2023-10-13T19:09:46;6.00;;;2.33;;
20986;SDS011;10652;50.306;8.570;2023-10-13T19:13:49;6.93;;;2.38;;
20986;SDS011;10652;50.306;8.570;2023-10-13T19:17:54;7.38;;;2.28;;
20986;SDS011;10652;50.306;8.570;2023-10-13T19:21:56;4.20;;;2.53;;
20986;SDS011;10652;50.306;8.570;2023-10-13T19:25:59;7.93;;;2.28;;
20986;SDS011;10652;50.306;8.570;2023-10-13T19:30:01;4.00;;;2.25;;
20986;SDS011;10652;50.306;8.570;2023-10-13T19:34:08;6.68;;;2.30;;
20986;SDS011;10652;50.306;8.570;2023-10-13T19:38:12;5.80;;;2.53;;
20986;SDS011;10652;50.306;8.570;2023-10-13T19:42:16;3.88;;;2.17;;
20986;SDS011;10652;50.306;8.570;2023-10-13T19:46:23;5.78;;;2.20;;
20986;SDS011;10652;50.306;8.570;2023-10-13T19:50:26;5.60;;;2.08;;
20986;SDS011;10652;50.306;8.570;2023-10-13T19:54:28;5.20;;;2.20;;
20986;SDS011;10652;50.306;8.570;2023-10-13T19:58:30;5.05;;;2.53;;
20986;SDS011;10652;50.306;8.570;2023-10-13T20:02:32;7.95;;;2.42;;
20986;SDS011;10652;50.306;8.570;2023-10-13T20:06:35;6.22;;;2.60;;
20986;SDS011;10652;50.306;8.570;2023-10-13T20:10:37;6.50;;;2.38;;
20986;SDS011;10652;50.306;8.570;2023-10-13T20:14:39;5.38;;;2.35;;
20986;SDS011;10652;50.306;8.570;2023-10-13T20:18:43;11.07;;;2.80;;
20986;SDS011;10652;50.306;8.570;2023-10-13T20:22:45;7.40;;;2.97;;
20986;SDS011;10652;50.306;8.570;2023-10-13T20:26:47;7.65;;;3.08;;
20986;SDS011;10652;50.306;8.570;2023-10-13T20:30:50;6.55;;;2.78;;
20986;SDS011;10652;50.306;8.570;2023-10-13T20:34:52;4.93;;;2.95;;
20986;SDS011;10652;50.306;8.570;2023-10-13T20:38:55;7.45;;;2.90;;
20986;SDS011;10652;50.306;8.570;2023-10-13T20:42:58;6.97;;;2.45;;
20986;SDS011;10652;50.306;8.570;2023-10-13T20:47:03;7.55;;;2.80;;
20986;SDS011;10652;50.306;8.570;2023-10-13T20:51:08;5.63;;;2.80;;
20986;SDS011;10652;50.306;8.570;2023-10-13T20:55:18;9.55;;;3.10;;
20986;SDS011;10652;50.306;8.570;2023-10-13T20:59:20;6.70;;;3.03;;
20986;SDS011;10652;50.306;8.570;2023-10-13T21:03:23;6.47;;;2.80;;
20986;SDS011;10652;50.306;8.570;2023-10-13T21:07:27;9.45;;;3.58;;
20986;SDS011;10652;50.306;8.570;2023-10-13T21:11:29;8.10;;;2.85;;
20986;SDS011;10652;50.306;8.570;2023-10-13T21:15:31;8.90;;;3.13;;
20986;SDS011;10652;50.306;8.570;2023-10-13T21:19:37;12.60;;;3.08;;
20986;SDS011;10652;50.306;8.570;2023-10-13T21:23:41;6.47;;;3.28;;
20986;SDS011;10652;50.306;8.570;2023-10-13T21:27:54;7.25;;;3.25;;
20986;SDS011;10652;50.306;8.570;2023-10-13T21:31:57;5.10;;;3.00;;
20986;SDS011;10652;50.306;8.570;2023-10-13T21:36:09;5.68;;;3.08;;
20986;SDS011;10652;50.306;8.570;2023-10-13T21:40:15;8.82;;;3.63;;
20986;SDS011;10652;50.306;8.570;2023-10-13T21:44:20;9.25;;;3.20;;
20986;SDS011;10652;50.306;8.570;2023-10-13T21:48:23;7.32;;;3.25;;
20986;SDS011;10652;50.306;8.570;2023-10-13T21:52:25;7.75;;;3.63;;
20986;SDS011;10652;50.306;8.570;2023-10-13T21:56:27;11.10;;;4.13;;
20986;SDS011;10652;50.306;8.570;2023-10-13T22:00:30;7.85;;;3.42;;
20986;SDS011;10652;50.306;8.570;2023-10-13T22:04:38;11.48;;;4.00;;
20986;SDS011;10652;50.306;8.570;2023-10-13T22:08:40;8.88;;;4.00;;
20986;SDS011;10652;50.306;8.570;2023-10-13T22:12:44;12.20;;;4.15;;
20986;SDS011;10652;50.306;8.570;2023-10-13T22:16:49;9.43;;;3.90;;
20986;SDS011;10652;50.306;8.570;2023-10-13T22:20:53;10.50;;;3.78;;
20986;SDS011;10652;50.306;8.570;2023-10-13T22:24:55;10.43;;;4.30;;
20986;SDS011;10652;50.306;8.570;2023-10-13T22:28:57;9.85;;;4.40;;
20986;SDS011;10652;50.306;8.570;2023-10-13T22:33:00;9.88;;;3.92;;
20986;SDS011;10652;50.306;8.570;2023-10-13T22:37:03;9.75;;;3.90;;
20986;SDS011;10652;50.306;8.570;2023-10-13T22:41:08;7.93;;;3.80;;
20986;SDS011;10652;50.306;8.570;2023-10-13T22:45:16;8.23;;;3.60;;
20986;SDS011;10652;50.306;8.570;2023-10-13T22:49:19;7.65;;;3.40;;
20986;SDS011;10652;50.306;8.570;2023-10-13T22:53:24;8.73;;;3.67;;
20986;SDS011;10652;50.306;8.570;2023-10-13T22:57:26;7.13;;;3.72;;
20986;SDS011;10652;50.306;8.570;2023-10-13T23:01:28;11.30;;;4.10;;
20986;SDS011;10652;50.306;8.570;2023-10-13T23:05:30;10.40;;;3.40;;
20986;SDS011;10652;50.306;8.570;2023-10-13T23:09:52;6.82;;;3.80;;
20986;SDS011;10652;50.306;8.570;2023-10-13T23:13:54;7.35;;;3.58;;
20986;SDS011;10652;50.306;8.570;2023-10-13T23:17:57;8.32;;;3.88;;
20986;SDS011;10652;50.306;8.570;2023-10-13T23:21:59;6.72;;;3.45;;
20986;SDS011;10652;50.306;8.570;2023-10-13T23:26:01;12.75;;;3.50;;
20986;SDS011;10652;50.306;8.570;2023-10-13T23:30:05;6.43;;;3.45;;
20986;SDS011;10652;50.306;8.570;2023-10-13T23:34:07;6.38;;;3.40;;
20986;SDS011;10652;50.306;8.570;2023-10-13T23:38:13;7.25;;;3.50;;
20986;SDS011;10652;50.306;8.570;2023-10-13T23:42:27;8.13;;;3.50;;
20986;SDS011;10652;50.306;8.570;2023-10-13T23:46:29;7.50;;;3.70;;
20986;SDS011;10652;50.306;8.570;2023-10-13T23:50:37;9.52;;;3.72;;
20986;SDS011;10652;50.306;8.570;2023-10-13T23:54:39;5.90;;;3.55;;
20986;SDS011;10652;50.306;8.570;2023-10-13T23:58:43;9.38;;;3.78;;
